Time;durP1;ratioP1;P1;durP2;ratioP2;P2;SDS_P1;SDS_P2;PMS_P1;PMS_P2;Temp;Humidity;BMP_temperature;BMP_pressure;BME280_temperature;BME280_humidity;BME280_pressure;Samples;Min_cycle;Max_cycle;Signal;HPM_P1;HPM_P2
2021/08/12 00:00:39;;;;;;;15.43;7.13;;;;;;;-145.01;100.00;64805.59;4981216;28;20043;-61
2021/08/12 00:03:04;;;;;;;13.88;6.45;;;;;;;-145.01;100.00;64805.59;4982705;28;20034;-61
2021/08/12 00:05:29;;;;;;;11.05;7.13;;;;;;;-145.01;100.00;64805.59;4986377;28;20342;-60
2021/08/12 00:07:55;;;;;;;12.68;7.70;;;;;;;-145.01;100.00;64805.59;4982959;28;20045;-61
2021/08/12 00:10:20;;;;;;;15.88;7.32;;;;;;;-145.01;100.00;64805.59;4980957;28;20420;-61
2021/08/12 00:12:46;;;;;;;11.45;6.63;;;;;;;-145.01;100.00;64805.59;4988640;28;20033;-61
2021/08/12 00:15:11;;;;;;;13.40;7.15;;;;;;;-145.01;100.00;64805.59;4985791;28;20073;-61
2021/08/12 00:17:36;;;;;;;11.93;7.13;;;;;;;-145.01;100.00;64805.59;4982298;28;20678;-61
2021/08/12 00:20:02;;;;;;;14.27;7.28;;;;;;;-145.01;100.00;64805.59;4987999;28;20038;-61
2021/08/12 00:22:28;;;;;;;12.27;6.95;;;;;;;-145.01;100.00;64805.59;5014842;28;20027;-60
2021/08/12 00:24:54;;;;;;;12.88;6.75;;;;;;;-145.01;100.00;64805.59;4985674;28;20030;-60
2021/08/12 00:27:19;;;;;;;13.23;7.07;;;;;;;-145.01;100.00;64805.59;4985864;28;20043;-61
2021/08/12 00:29:44;;;;;;;16.80;7.50;;;;;;;-145.01;100.00;64805.59;4986669;28;20030;-61
2021/08/12 00:32:10;;;;;;;12.35;7.40;;;;;;;-145.01;100.00;64805.59;4992341;28;20042;-61
2021/08/12 00:34:35;;;;;;;12.35;7.03;;;;;;;-145.01;100.00;64805.59;4986595;28;20089;-60
2021/08/12 00:37:02;;;;;;;13.75;7.20;;;;;;;-145.01;100.00;64805.59;4983264;28;20050;-61
2021/08/12 00:39:28;;;;;;;13.60;7.45;;;;;;;-145.01;100.00;64805.59;5000778;28;20475;-61
2021/08/12 00:41:54;;;;;;;14.57;6.95;;;;;;;-145.01;100.00;64805.59;5002055;28;20576;-61
2021/08/12 00:44:19;;;;;;;13.57;7.00;;;;;;;-145.01;100.00;64805.59;4998900;28;20125;-61
2021/08/12 00:46:45;;;;;;;12.70;6.97;;;;;;;-145.01;100.00;64805.59;5008030;28;20038;-60
2021/08/12 00:49:10;;;;;;;12.93;6.80;;;;;;;-145.01;100.00;64805.59;4992210;28;20473;-61
2021/08/12 00:51:36;;;;;;;12.90;7.13;;;;;;;-145.01;100.00;64805.59;4980757;28;20463;-61
2021/08/12 00:54:01;;;;;;;15.23;6.93;;;;;;;-145.01;100.00;64805.59;4998838;28;20473;-61
2021/08/12 00:56:27;;;;;;;12.93;6.97;;;;;;;-145.01;100.00;64805.59;4986700;28;20043;-61
2021/08/12 00:58:53;;;;;;;11.00;7.10;;;;;;;-145.01;100.00;64805.59;4993534;28;20033;-60
2021/08/12 01:01:18;;;;;;;13.23;7.32;;;;;;;-145.01;100.00;64805.59;4993061;28;20438;-60
2021/08/12 01:03:44;;;;;;;13.13;6.88;;;;;;;-145.01;100.00;64805.59;4992306;28;20026;-60
2021/08/12 01:06:09;;;;;;;13.20;7.30;;;;;;;-145.01;100.00;64805.59;5001508;28;20426;-61
2021/08/12 01:08:35;;;;;;;13.43;7.55;;;;;;;-145.01;100.00;64805.59;4977640;28;20057;-61
2021/08/12 01:11:08;;;;;;;10.10;6.40;;;;;;;-145.01;100.00;64805.59;4993126;28;20057;-61
2021/08/12 01:13:39;;;;;;;17.08;8.07;;;;;;;-145.01;100.00;64805.59;4991968;28;20026;-61
2021/08/12 01:16:06;;;;;;;13.13;7.43;;;;;;;-145.01;100.00;64805.59;4975557;28;20046;-61
2021/08/12 01:18:50;;;;;;;19.27;7.68;;;;;;;-145.01;100.00;64805.59;4975874;28;20496;-60
2021/08/12 01:21:15;;;;;;;13.15;7.80;;;;;;;-145.01;100.00;64805.59;4991829;28;20061;-61
2021/08/12 01:23:40;;;;;;;18.98;8.00;;;;;;;-145.01;100.00;64805.59;4993319;28;20554;-61
2021/08/12 01:26:06;;;;;;;13.32;7.60;;;;;;;-145.01;100.00;64805.59;4991578;28;20439;-61
2021/08/12 01:28:34;;;;;;;13.55;7.68;;;;;;;-145.01;100.00;64805.59;4975721;28;20038;-61
2021/08/12 01:31:21;;;;;;;16.27;8.45;;;;;;;-145.01;100.00;64805.59;4975728;28;20429;-60
2021/08/12 01:34:24;;;;;;;17.52;7.88;;;;;;;-145.01;100.00;64805.59;4991691;28;20037;-61
2021/08/12 01:36:54;;;;;;;17.13;8.35;;;;;;;-145.01;100.00;64805.59;4990444;28;20123;-60
2021/08/12 01:39:19;;;;;;;11.45;7.25;;;;;;;-145.01;100.00;64805.59;4984944;28;20441;-60
2021/08/12 01:41:46;;;;;;;17.80;7.05;;;;;;;-145.01;100.00;64805.59;4987938;28;20030;-61
2021/08/12 01:44:12;;;;;;;16.25;7.57;;;;;;;-145.01;100.00;64805.59;4987517;28;20038;-60
2021/08/12 01:46:37;;;;;;;18.30;8.40;;;;;;;-145.01;100.00;64805.59;4946019;28;20087;-60
2021/08/12 01:49:03;;;;;;;13.70;7.50;;;;;;;-145.01;100.00;64805.59;4987956;28;20030;-60
2021/08/12 01:51:29;;;;;;;14.90;7.63;;;;;;;-145.01;100.00;64805.59;4991319;28;20043;-61
2021/08/12 01:53:54;;;;;;;11.88;7.97;;;;;;;-145.01;100.00;64805.59;4998191;28;20022;-61
2021/08/12 01:56:20;;;;;;;17.90;8.45;;;;;;;-145.01;100.00;64805.59;4999440;28;20454;-61
2021/08/12 01:58:46;;;;;;;13.35;7.80;;;;;;;-145.01;100.00;64805.59;4988200;28;20027;-60
2021/08/12 02:01:11;;;;;;;13.98;9.02;;;;;;;-145.01;100.00;64805.59;4966395;28;20061;-60
2021/08/12 02:03:37;;;;;;;15.95;7.45;;;;;;;-145.01;100.00;64805.59;4978977;28;20548;-61
2021/08/12 02:06:02;;;;;;;17.00;9.07;;;;;;;-145.01;100.00;64805.59;4998129;28;20487;-61
2021/08/12 02:08:28;;;;;;;17.38;8.63;;;;;;;-145.01;100.00;64805.59;5017248;28;20493;-60
2021/08/12 02:10:53;;;;;;;12.77;8.23;;;;;;;-145.01;100.00;64805.59;4984415;28;20113;-61
2021/08/12 02:13:19;;;;;;;18.33;9.52;;;;;;;-145.01;100.00;64805.59;4985204;28;20030;-61
2021/08/12 02:15:44;;;;;;;13.85;8.23;;;;;;;-145.01;100.00;64805.59;4989801;28;20494;-61
2021/08/12 02:18:10;;;;;;;16.25;8.85;;;;;;;-145.01;100.00;64805.59;4983960;28;20062;-61
2021/08/12 02:20:35;;;;;;;11.55;7.35;;;;;;;-145.01;100.00;64805.59;4987348;28;20069;-61
2021/08/12 02:23:21;;;;;;;19.17;7.32;;;;;;;-145.01;100.00;64805.59;4987463;28;20045;-60
2021/08/12 02:26:04;;;;;;;15.10;8.45;;;;;;;-145.01;100.00;64805.59;4976841;28;20030;-61
2021/08/12 02:28:30;;;;;;;12.35;8.30;;;;;;;-145.01;100.00;64805.59;4989177;28;20026;-61
2021/08/12 02:30:56;;;;;;;14.00;8.52;;;;;;;-145.01;100.00;64805.59;4982696;28;20086;-60
2021/08/12 02:33:24;;;;;;;17.50;8.52;;;;;;;-145.01;100.00;64805.59;4980335;28;20039;-61
2021/08/12 02:35:50;;;;;;;17.83;9.57;;;;;;;-145.01;100.00;64805.59;4967402;28;20129;-60
2021/08/12 02:38:15;;;;;;;17.50;10.30;;;;;;;-145.01;100.00;64805.59;4991023;28;20022;-61
2021/08/12 02:40:41;;;;;;;16.85;9.98;;;;;;;-145.01;100.00;64805.59;4995213;28;20043;-61
2021/08/12 02:43:06;;;;;;;14.77;10.10;;;;;;;-145.01;100.00;64805.59;4969783;28;20388;-61
2021/08/12 02:45:32;;;;;;;20.98;10.05;;;;;;;-145.01;100.00;64805.59;4977541;28;20039;-60
2021/08/12 02:47:57;;;;;;;17.77;9.35;;;;;;;-145.01;100.00;64805.59;4985090;28;20022;-61
2021/08/12 02:50:23;;;;;;;18.55;9.48;;;;;;;-145.01;100.00;64805.59;4985624;28;20129;-61
2021/08/12 02:52:48;;;;;;;23.55;10.45;;;;;;;-145.01;100.00;64805.59;4985689;28;20026;-60
2021/08/12 02:55:14;;;;;;;12.13;8.30;;;;;;;-145.01;100.00;64805.59;4992953;28;20030;-60
2021/08/12 02:57:39;;;;;;;13.75;8.13;;;;;;;-145.01;100.00;64805.59;4984035;28;20026;-61
2021/08/12 03:00:05;;;;;;;19.05;8.45;;;;;;;-145.01;100.00;64805.59;4986239;28;20031;-61
2021/08/12 03:02:30;;;;;;;15.95;8.38;;;;;;;-145.01;100.00;64805.59;4985884;28;20038;-61
2021/08/12 03:04:56;;;;;;;14.20;8.05;;;;;;;-145.01;100.00;64805.59;4984486;28;20033;-60
2021/08/12 03:07:21;;;;;;;14.85;7.93;;;;;;;-145.01;100.00;64805.59;4986472;28;20046;-61
2021/08/12 03:09:48;;;;;;;14.15;7.93;;;;;;;-145.01;100.00;64805.59;4983750;28;20057;-60
2021/08/12 03:12:15;;;;;;;16.17;7.85;;;;;;;-145.01;100.00;64805.59;4986383;28;20056;-60
2021/08/12 03:14:40;;;;;;;15.50;8.50;;;;;;;-145.01;100.00;64805.59;4986905;28;20030;-60
2021/08/12 03:17:06;;;;;;;13.57;8.57;;;;;;;-145.01;100.00;64805.59;4984650;28;20050;-61
2021/08/12 03:19:31;;;;;;;17.52;10.48;;;;;;;-145.01;100.00;64805.59;4986495;28;20110;-60
2021/08/12 03:22:04;;;;;;;15.95;8.43;;;;;;;-145.01;100.00;64805.59;4986548;28;20477;-60
2021/08/12 03:24:34;;;;;;;15.13;7.57;;;;;;;-145.01;100.00;64805.59;4993150;28;20030;-61
2021/08/12 03:27:00;;;;;;;17.17;8.52;;;;;;;-145.01;100.00;64805.59;4983236;28;20050;-60
2021/08/12 03:29:26;;;;;;;13.05;8.18;;;;;;;-145.01;100.00;64805.59;4982239;28;20034;-61
2021/08/12 03:31:51;;;;;;;15.27;8.35;;;;;;;-145.01;100.00;64805.59;4985415;28;20038;-60
2021/08/12 03:34:17;;;;;;;14.13;8.35;;;;;;;-145.01;100.00;64805.59;4985771;28;20031;-60
2021/08/12 03:36:42;;;;;;;15.20;8.95;;;;;;;-145.01;100.00;64805.59;4983886;28;20043;-61
2021/08/12 03:39:07;;;;;;;16.73;8.13;;;;;;;-145.01;100.00;64805.59;4989023;28;20033;-61
2021/08/12 03:41:33;;;;;;;15.13;8.32;;;;;;;-145.01;100.00;64805.59;4985450;28;20457;-60
2021/08/12 03:43:58;;;;;;;16.23;8.63;;;;;;;-145.01;100.00;64805.59;4985438;28;20408;-61
2021/08/12 03:46:24;;;;;;;14.98;8.25;;;;;;;-145.01;100.00;64805.59;4986045;28;20374;-61
2021/08/12 03:48:49;;;;;;;14.95;8.88;;;;;;;-145.01;100.00;64805.59;4983467;28;20034;-61
2021/08/12 03:51:15;;;;;;;15.85;8.55;;;;;;;-145.01;100.00;64805.59;4986706;28;20050;-60
2021/08/12 03:53:40;;;;;;;17.65;7.93;;;;;;;-145.01;100.00;64805.59;4985132;28;20113;-59
2021/08/12 03:56:05;;;;;;;12.93;8.40;;;;;;;-145.01;100.00;64805.59;4988839;28;20058;-60
2021/08/12 03:58:32;;;;;;;19.25;10.15;;;;;;;-145.01;100.00;64805.59;4989879;28;20080;-61
2021/08/12 04:00:57;;;;;;;19.35;9.80;;;;;;;-145.01;100.00;64805.59;4983637;28;20038;-60
2021/08/12 04:03:23;;;;;;;18.85;9.27;;;;;;;-145.01;100.00;64805.59;4985325;28;20026;-60
2021/08/12 04:05:49;;;;;;;15.88;9.63;;;;;;;-145.01;100.00;64805.59;5013896;28;20043;-61
2021/08/12 04:08:14;;;;;;;15.25;9.88;;;;;;;-145.01;100.00;64805.59;4980860;28;20035;-60
2021/08/12 04:10:40;;;;;;;22.48;9.85;;;;;;;-145.01;100.00;64805.59;4999844;28;20041;-60
2021/08/12 04:13:05;;;;;;;21.15;12.00;;;;;;;-145.01;100.00;64805.59;4976787;28;20085;-60
2021/08/12 04:15:30;;;;;;;28.98;15.98;;;;;;;-145.01;100.00;64805.59;4986306;28;20061;-60
2021/08/12 04:17:56;;;;;;;28.20;13.93;;;;;;;-145.01;100.00;64805.59;4984150;28;20026;-61
2021/08/12 04:20:21;;;;;;;16.63;10.15;;;;;;;-145.01;100.00;64805.59;4992557;28;20038;-61
2021/08/12 04:22:47;;;;;;;14.88;7.60;;;;;;;-145.01;100.00;64805.59;4987565;28;20023;-60
2021/08/12 04:25:12;;;;;;;18.10;7.13;;;;;;;-145.01;100.00;64805.59;5019072;28;20416;-61
2021/08/12 04:27:38;;;;;;;13.07;7.72;;;;;;;-145.01;100.00;64805.59;4985304;28;20461;-61
2021/08/12 04:30:06;;;;;;;14.73;7.75;;;;;;;-145.01;100.00;64805.59;4987507;28;20061;-62
2021/08/12 04:32:31;;;;;;;18.33;7.40;;;;;;;-145.01;100.00;64805.59;4978029;28;20389;-61
2021/08/12 04:34:56;;;;;;;14.75;8.65;;;;;;;-145.01;100.00;64805.59;4990825;28;20034;-60
2021/08/12 04:37:22;;;;;;;13.60;7.78;;;;;;;-145.01;100.00;64805.59;4984890;28;20504;-60
2021/08/12 04:39:47;;;;;;;14.20;7.57;;;;;;;-145.01;100.00;64805.59;4985496;28;20477;-60
2021/08/12 04:42:13;;;;;;;17.23;7.85;;;;;;;-145.01;100.00;64805.59;4984771;28;20093;-61
2021/08/12 04:44:38;;;;;;;12.40;7.18;;;;;;;-145.01;100.00;64805.59;4992119;28;20026;-61
2021/08/12 04:47:04;;;;;;;12.32;6.80;;;;;;;-145.01;100.00;64805.59;4988441;28;20046;-61
2021/08/12 04:49:29;;;;;;;16.50;7.30;;;;;;;-145.01;100.00;64805.59;4986465;28;20426;-61
2021/08/12 04:51:55;;;;;;;14.82;7.15;;;;;;;-145.01;100.00;64805.59;4983641;28;20035;-61
2021/08/12 04:54:20;;;;;;;17.83;7.40;;;;;;;-145.01;100.00;64805.59;4987145;28;20046;-60
2021/08/12 04:56:46;;;;;;;17.33;7.80;;;;;;;-145.01;100.00;64805.59;4981880;28;20050;-62
2021/08/12 04:59:11;;;;;;;12.25;7.85;;;;;;;-145.01;100.00;64805.59;5015915;28;20053;-61
2021/08/12 05:01:36;;;;;;;12.63;7.18;;;;;;;-145.01;100.00;64805.59;4983734;28;20121;-61
2021/08/12 05:04:02;;;;;;;14.82;8.85;;;;;;;-145.01;100.00;64805.59;4983621;28;20633;-60
2021/08/12 05:06:27;;;;;;;17.42;8.25;;;;;;;-145.01;100.00;64805.59;4984192;28;20039;-61
2021/08/12 05:08:53;;;;;;;14.75;7.60;;;;;;;-145.01;100.00;64805.59;4988969;28;20046;-61
2021/08/12 05:11:18;;;;;;;13.75;7.35;;;;;;;-145.01;100.00;64805.59;4984916;28;20039;-61
2021/08/12 05:13:44;;;;;;;14.85;8.48;;;;;;;-145.01;100.00;64805.59;4978044;28;20022;-61
2021/08/12 05:16:09;;;;;;;11.93;7.38;;;;;;;-145.01;100.00;64805.59;4982777;28;20042;-60
2021/08/12 05:18:35;;;;;;;14.90;7.50;;;;;;;-145.01;100.00;64805.59;4980001;28;20480;-61
2021/08/12 05:21:00;;;;;;;15.85;7.18;;;;;;;-145.01;100.00;64805.59;4983768;28;20559;-61
2021/08/12 05:23:26;;;;;;;12.05;6.80;;;;;;;-145.01;100.00;64805.59;4975309;28;20081;-61
2021/08/12 05:25:51;;;;;;;20.88;7.10;;;;;;;-145.01;100.00;64805.59;4993049;28;20104;-61
2021/08/12 05:28:16;;;;;;;13.48;7.32;;;;;;;-145.01;100.00;64805.59;4993201;28;20018;-61
2021/08/12 05:30:42;;;;;;;12.13;7.20;;;;;;;-145.01;100.00;64805.59;4993143;28;20037;-61
2021/08/12 05:33:07;;;;;;;12.18;6.82;;;;;;;-145.01;100.00;64805.59;4992961;28;20358;-61
2021/08/12 05:35:33;;;;;;;15.70;6.70;;;;;;;-145.01;100.00;64805.59;4992911;28;20400;-60
2021/08/12 05:37:58;;;;;;;18.15;6.70;;;;;;;-145.01;100.00;64805.59;4992987;28;20037;-61
2021/08/12 05:40:24;;;;;;;21.10;6.57;;;;;;;-145.01;100.00;64805.59;4992802;28;20038;-61
2021/08/12 05:42:49;;;;;;;10.48;6.35;;;;;;;-145.01;100.00;64805.59;4983758;28;20021;-62
2021/08/12 05:45:15;;;;;;;11.15;5.97;;;;;;;-145.01;100.00;64805.59;4987887;28;20042;-61
2021/08/12 05:47:40;;;;;;;12.30;6.63;;;;;;;-145.01;100.00;64805.59;4998051;28;20018;-61
2021/08/12 05:50:06;;;;;;;12.80;6.43;;;;;;;-145.01;100.00;64805.59;4993520;28;20095;-61
2021/08/12 05:52:38;;;;;;;10.52;5.75;;;;;;;-145.01;100.00;64805.59;4995541;28;20038;-62
2021/08/12 05:55:04;;;;;;;9.65;6.22;;;;;;;-145.01;100.00;64805.59;4990729;28;20042;-61
2021/08/12 05:57:30;;;;;;;14.57;6.68;;;;;;;-145.01;100.00;64805.59;4993323;28;20034;-62
2021/08/12 05:59:55;;;;;;;12.40;6.40;;;;;;;-145.01;100.00;64805.59;4993213;28;20014;-62
2021/08/12 06:02:21;;;;;;;19.30;6.57;;;;;;;-145.01;100.00;64805.59;4991010;28;20045;-61
2021/08/12 06:04:46;;;;;;;12.93;6.88;;;;;;;-145.01;100.00;64805.59;4992772;28;20034;-62
2021/08/12 06:07:13;;;;;;;12.77;6.60;;;;;;;-145.01;100.00;64805.59;4992647;28;20039;-61
2021/08/12 06:09:38;;;;;;;17.50;6.18;;;;;;;-145.01;100.00;64805.59;4992779;28;20150;-62
2021/08/12 06:12:04;;;;;;;13.85;5.82;;;;;;;-145.01;100.00;64805.59;4992747;28;20493;-60
2021/08/12 06:14:30;;;;;;;14.32;6.43;;;;;;;-145.01;100.00;64805.59;4992598;28;20030;-60
2021/08/12 06:16:55;;;;;;;13.00;6.75;;;;;;;-145.01;100.00;64805.59;4974983;28;20517;-60
2021/08/12 06:19:21;;;;;;;14.20;6.45;;;;;;;-145.01;100.00;64805.59;4991691;28;20026;-60
2021/08/12 06:21:46;;;;;;;15.95;7.10;;;;;;;-145.01;100.00;64805.59;4992574;28;20130;-60
2021/08/12 06:24:14;;;;;;;12.15;7.07;;;;;;;-145.01;100.00;64805.59;4995073;28;20385;-60
2021/08/12 06:26:40;;;;;;;11.10;6.47;;;;;;;-145.01;100.00;64805.59;4996187;28;20034;-60
2021/08/12 06:29:06;;;;;;;12.40;5.95;;;;;;;-145.01;100.00;64805.59;4996170;28;20500;-60
2021/08/12 06:31:31;;;;;;;10.05;5.85;;;;;;;-145.01;100.00;64805.59;4995912;28;20046;-60
2021/08/12 06:33:57;;;;;;;10.63;6.00;;;;;;;-145.01;100.00;64805.59;5009681;28;20037;-60
2021/08/12 06:36:22;;;;;;;11.38;6.00;;;;;;;-145.01;100.00;64805.59;4988014;28;20065;-60
2021/08/12 06:38:47;;;;;;;11.57;5.85;;;;;;;-145.01;100.00;64805.59;4991875;28;20496;-60
2021/08/12 06:41:13;;;;;;;11.05;5.78;;;;;;;-145.01;100.00;64805.59;4995657;28;20034;-60
2021/08/12 06:43:38;;;;;;;9.15;6.18;;;;;;;-145.01;100.00;64805.59;4989360;28;20023;-60
2021/08/12 06:46:04;;;;;;;9.60;5.85;;;;;;;-145.01;100.00;64805.59;4988004;28;20031;-60
2021/08/12 06:48:29;;;;;;;10.45;5.60;;;;;;;-145.01;100.00;64805.59;4984781;28;20034;-60
2021/08/12 06:50:55;;;;;;;12.52;6.70;;;;;;;-145.01;100.00;64805.59;4986143;28;20061;-60
2021/08/12 06:53:20;;;;;;;16.63;6.38;;;;;;;-145.01;100.00;64805.59;4981707;28;20042;-60
2021/08/12 06:55:46;;;;;;;18.02;6.50;;;;;;;-145.01;100.00;64805.59;4990036;28;20054;-60
2021/08/12 06:58:11;;;;;;;12.23;6.65;;;;;;;-145.01;100.00;64805.59;4981276;28;20043;-60
2021/08/12 07:00:37;;;;;;;13.68;7.15;;;;;;;-145.01;100.00;64805.59;4996702;28;20038;-59
2021/08/12 07:03:02;;;;;;;17.35;6.97;;;;;;;-145.01;100.00;64805.59;4995841;28;20022;-60
2021/08/12 07:05:28;;;;;;;14.00;6.72;;;;;;;-145.01;100.00;64805.59;4990224;28;20117;-60
2021/08/12 07:07:53;;;;;;;9.32;6.13;;;;;;;-145.01;100.00;64805.59;4983801;28;20470;-60
2021/08/12 07:10:19;;;;;;;16.88;6.72;;;;;;;-145.01;100.00;64805.59;4992072;28;20033;-60
2021/08/12 07:12:44;;;;;;;15.85;6.38;;;;;;;-145.01;100.00;64805.59;4995505;28;20026;-60
2021/08/12 07:15:10;;;;;;;12.25;6.13;;;;;;;-145.01;100.00;64805.59;4994798;28;20037;-60
2021/08/12 07:17:36;;;;;;;13.63;6.40;;;;;;;-145.01;100.00;64805.59;4994077;28;20393;-60
2021/08/12 07:20:02;;;;;;;10.70;5.53;;;;;;;-145.01;100.00;64805.59;4994707;28;20038;-61
2021/08/12 07:22:28;;;;;;;11.18;6.20;;;;;;;-145.01;100.00;64805.59;4994170;28;20030;-60
2021/08/12 07:24:53;;;;;;;16.20;6.30;;;;;;;-145.01;100.00;64805.59;4995186;28;20034;-60
2021/08/12 07:27:19;;;;;;;16.85;6.78;;;;;;;-145.01;100.00;64805.59;4988696;28;20073;-60
2021/08/12 07:29:44;;;;;;;16.60;6.38;;;;;;;-145.01;100.00;64805.59;5002103;28;20421;-60
2021/08/12 07:32:10;;;;;;;13.77;6.45;;;;;;;-145.01;100.00;64805.59;4985514;28;20039;-60
2021/08/12 07:34:36;;;;;;;14.10;6.57;;;;;;;-145.01;100.00;64805.59;4985688;28;20026;-60
2021/08/12 07:37:02;;;;;;;14.90;6.68;;;;;;;-145.01;100.00;64805.59;4990264;28;20397;-60
2021/08/12 07:39:27;;;;;;;14.48;6.35;;;;;;;-145.01;100.00;64805.59;5006337;28;20058;-60
2021/08/12 07:41:53;;;;;;;17.25;6.70;;;;;;;-145.01;100.00;64805.59;5005026;28;20033;-60
2021/08/12 07:44:18;;;;;;;14.23;6.55;;;;;;;-145.01;100.00;64805.59;4995528;28;20030;-60
2021/08/12 07:46:44;;;;;;;16.95;6.93;;;;;;;-145.01;100.00;64805.59;4994020;28;20046;-60
2021/08/12 07:49:09;;;;;;;17.80;6.88;;;;;;;-145.01;100.00;64805.59;4994524;28;20027;-60
2021/08/12 07:51:34;;;;;;;12.90;5.55;;;;;;;-145.01;100.00;64805.59;4993727;28;20034;-59
2021/08/12 07:54:00;;;;;;;10.32;6.40;;;;;;;-145.01;100.00;64805.59;4992512;28;20034;-60
2021/08/12 07:56:25;;;;;;;16.85;6.22;;;;;;;-145.01;100.00;64805.59;4993339;28;20038;-60
2021/08/12 07:58:51;;;;;;;13.38;5.70;;;;;;;-145.01;100.00;64805.59;5002125;28;20030;-60
2021/08/12 08:01:17;;;;;;;16.55;6.20;;;;;;;-145.01;100.00;64805.59;5005286;28;20038;-60
2021/08/12 08:03:43;;;;;;;14.32;5.53;;;;;;;-145.01;100.00;64805.59;4989910;28;20093;-60
2021/08/12 08:06:08;;;;;;;20.67;6.20;;;;;;;-145.01;100.00;64805.59;4992232;28;20049;-60
2021/08/12 08:08:34;;;;;;;17.63;6.07;;;;;;;-145.01;100.00;64805.59;4994284;28;20042;-60
2021/08/12 08:10:59;;;;;;;20.08;6.43;;;;;;;-145.01;100.00;64805.59;4994137;28;20049;-60
2021/08/12 08:13:24;;;;;;;18.77;6.90;;;;;;;-145.01;100.00;64805.59;4994431;28;20384;-60
2021/08/12 08:15:50;;;;;;;24.60;6.70;;;;;;;-145.01;100.00;64805.59;4993139;28;20039;-60
2021/08/12 08:18:15;;;;;;;24.73;6.93;;;;;;;-145.01;100.00;64805.59;5026171;28;20022;-60
2021/08/12 08:20:41;;;;;;;40.15;7.22;;;;;;;-145.01;100.00;64805.59;4994282;28;20022;-60
2021/08/12 08:23:10;;;;;;;40.95;7.63;;;;;;;-145.01;100.00;64805.59;4994427;28;20033;-59
2021/08/12 08:25:35;;;;;;;51.00;8.43;;;;;;;-145.01;100.00;64805.59;4994176;28;20037;-60
2021/08/12 08:28:01;;;;;;;55.60;9.20;;;;;;;-145.01;100.00;64805.59;5025741;28;20105;-60
2021/08/12 08:30:26;;;;;;;56.63;8.98;;;;;;;-145.01;100.00;64805.59;4993845;28;20046;-60
2021/08/12 08:32:52;;;;;;;66.30;9.52;;;;;;;-145.01;100.00;64805.59;5025558;28;20026;-60
2021/08/12 08:35:18;;;;;;;60.30;9.77;;;;;;;-145.01;100.00;64805.59;4992318;28;20061;-60
2021/08/12 08:37:43;;;;;;;56.13;8.50;;;;;;;-145.01;100.00;64805.59;4992790;28;20034;-59
2021/08/12 08:40:09;;;;;;;46.22;8.90;;;;;;;-145.01;100.00;64805.59;4993791;28;20033;-60
2021/08/12 08:42:35;;;;;;;51.22;9.23;;;;;;;-145.01;100.00;64805.59;4993948;28;20115;-62
2021/08/12 08:45:01;;;;;;;59.13;8.45;;;;;;;-145.01;100.00;64805.59;4976322;28;20065;-61
2021/08/12 08:47:26;;;;;;;53.58;8.88;;;;;;;-145.01;100.00;64805.59;4993231;28;20385;-60
2021/08/12 08:49:52;;;;;;;51.78;9.05;;;;;;;-145.01;100.00;64805.59;4992856;28;20384;-60
2021/08/12 08:52:17;;;;;;;36.20;7.75;;;;;;;-145.01;100.00;64805.59;4991717;28;20464;-60
2021/08/12 08:54:43;;;;;;;33.60;8.80;;;;;;;-145.01;100.00;64805.59;4992888;28;20023;-60
2021/08/12 08:57:09;;;;;;;39.63;8.10;;;;;;;-145.01;100.00;64805.59;4993247;28;20117;-59
2021/08/12 08:59:35;;;;;;;31.65;7.75;;;;;;;-145.01;100.00;64805.59;4993652;28;20122;-60
2021/08/12 09:02:05;;;;;;;36.97;8.30;;;;;;;-145.01;100.00;64805.59;4993182;28;20034;-60
2021/08/12 09:04:34;;;;;;;37.38;8.48;;;;;;;-145.01;100.00;64805.59;4992325;28;20069;-60
2021/08/12 09:07:09;;;;;;;37.85;8.18;;;;;;;-145.01;100.00;64805.59;4993464;28;20099;-60
2021/08/12 09:09:35;;;;;;;43.92;8.98;;;;;;;-145.01;100.00;64805.59;4993335;28;20050;-60
2021/08/12 09:12:01;;;;;;;42.20;9.25;;;;;;;-145.01;100.00;64805.59;4991788;28;20035;-60
2021/08/12 09:14:40;;;;;;;42.15;8.35;;;;;;;-145.01;100.00;64805.59;4993436;28;20025;-59
2021/08/12 09:17:26;;;;;;;40.63;8.23;;;;;;;-145.01;100.00;64805.59;4993130;28;20122;-60
2021/08/12 09:19:59;;;;;;;26.00;7.97;;;;;;;-145.01;100.00;64805.59;4993449;28;20088;-60
2021/08/12 09:22:29;;;;;;;33.00;8.55;;;;;;;-145.01;100.00;64805.59;4993180;28;20532;-60
2021/08/12 09:24:54;;;;;;;;;;;;;;;-145.01;100.00;64805.59;4993718;28;20038;-60
2021/08/12 09:27:22;;;;;;;26.92;7.60;;;;;;;-145.01;100.00;64805.59;4993042;28;19972;-60
2021/08/12 09:29:48;;;;;;;30.85;8.00;;;;;;;-145.01;100.00;64805.59;4993393;28;20038;-60
2021/08/12 09:32:13;;;;;;;34.28;9.00;;;;;;;-145.01;100.00;64805.59;4992860;28;20044;-60
2021/08/12 09:34:43;;;;;;;28.17;7.20;;;;;;;-145.01;100.00;64805.59;4975763;28;20030;-60
2021/08/12 09:37:09;;;;;;;38.30;7.40;;;;;;;-145.01;100.00;64805.59;4992951;28;20497;-60
2021/08/12 09:39:35;;;;;;;32.00;7.20;;;;;;;-145.01;100.00;64805.59;4993352;28;20057;-60
2021/08/12 09:42:00;;;;;;;31.63;7.45;;;;;;;-145.01;100.00;64805.59;4992784;28;20058;-60
2021/08/12 09:44:40;;;;;;;24.13;6.90;;;;;;;-145.01;100.00;64805.59;4993527;28;20409;-60
2021/08/12 09:47:12;;;;;;;28.42;6.78;;;;;;;-145.01;100.00;64805.59;4991548;28;20066;-60
2021/08/12 09:49:39;;;;;;;20.88;6.43;;;;;;;-145.01;100.00;64805.59;4993213;28;20027;-60
2021/08/12 09:52:28;;;;;;;26.95;7.10;;;;;;;-145.01;100.00;64805.59;4992700;28;20038;-60
2021/08/12 09:55:18;;;;;;;18.42;6.20;;;;;;;-145.01;100.00;64805.59;4993253;28;20100;-60
2021/08/12 09:57:53;;;;;;;26.88;6.88;;;;;;;-145.01;100.00;64805.59;4991704;28;20092;-60
2021/08/12 10:00:24;;;;;;;22.45;6.40;;;;;;;-145.01;100.00;64805.59;4996491;28;20054;-60
2021/08/12 10:02:50;;;;;;;33.70;7.50;;;;;;;-145.01;100.00;64805.59;4997039;28;20023;-60
2021/08/12 10:05:15;;;;;;;15.65;7.38;;;;;;;-145.01;100.00;64805.59;4995367;28;20469;-60
2021/08/12 10:07:45;;;;;;;28.13;6.78;;;;;;;-145.01;100.00;64805.59;4996811;28;20041;-60
2021/08/12 10:10:16;;;;;;;28.55;7.10;;;;;;;-145.01;100.00;64805.59;4996319;28;20485;-60
2021/08/12 10:12:48;;;;;;;25.58;7.13;;;;;;;-145.01;100.00;64805.59;4996766;28;20030;-60
2021/08/12 10:15:14;;;;;;;25.48;7.32;;;;;;;-145.01;100.00;64805.59;4996482;28;20157;-60
2021/08/12 10:17:41;;;;;;;21.80;6.90;;;;;;;-145.01;100.00;64805.59;4996556;28;20412;-60
2021/08/12 10:20:09;;;;;;;28.52;7.75;;;;;;;-145.01;100.00;64805.59;4996142;28;20026;-60
2021/08/12 10:22:34;;;;;;;19.27;6.32;;;;;;;-145.01;100.00;64805.59;4996577;28;20034;-60
2021/08/12 10:25:00;;;;;;;27.15;6.97;;;;;;;-145.01;100.00;64805.59;4995350;28;20027;-60
2021/08/12 10:27:25;;;;;;;21.92;7.22;;;;;;;-145.01;100.00;64805.59;4994849;28;20046;-60
2021/08/12 10:29:51;;;;;;;20.42;7.63;;;;;;;-145.01;100.00;64805.59;4979368;28;20030;-60
2021/08/12 10:32:16;;;;;;;14.57;6.55;;;;;;;-145.01;100.00;64805.59;4994922;28;20061;-59
2021/08/12 10:34:41;;;;;;;22.77;6.90;;;;;;;-145.01;100.00;64805.59;4995211;28;20465;-60
2021/08/12 10:37:09;;;;;;;30.63;7.47;;;;;;;-145.01;100.00;64805.59;4995926;28;20097;-60
2021/08/12 10:39:39;;;;;;;17.25;7.10;;;;;;;-145.01;100.00;64805.59;4982612;28;20496;-60
2021/08/12 10:42:06;;;;;;;22.05;6.50;;;;;;;-145.01;100.00;64805.59;4991747;28;20043;-60
2021/08/12 10:44:32;;;;;;;21.35;6.43;;;;;;;-145.01;100.00;64805.59;4994484;28;20472;-60
2021/08/12 10:46:57;;;;;;;28.00;6.80;;;;;;;-145.01;100.00;64805.59;5001920;28;20042;-60
2021/08/12 10:49:26;;;;;;;21.98;6.18;;;;;;;-145.01;100.00;64805.59;4982165;28;20483;-60
2021/08/12 10:52:20;;;;;;;16.75;6.22;;;;;;;-145.01;100.00;64805.59;4984225;28;20516;-63
2021/08/12 10:54:46;;;;;;;23.65;6.43;;;;;;;-145.01;100.00;64805.59;4984577;28;20038;-60
2021/08/12 10:57:25;;;;;;;18.58;6.93;;;;;;;-145.01;100.00;64805.59;5018735;28;20053;-61
2021/08/12 10:59:51;;;;;;;22.40;6.88;;;;;;;-145.01;100.00;64805.59;4991670;28;20061;-60